Липецк

Карта отелей и гостиниц, располагающихся рядом с аэропортом Липецк :

Липецк Липецкая область 52° 42' 11.7" N, 39° 32' 15.9" E
Код аэродрома ИКАО
UUOL
Код аэродрома RU
УУОЛ
Координаты
N52.70325° E039.53775°
Превышение над уровнем моря
178
Основная полоса
15/33
Курс магнитный
150,3/330,3
Длина основной ВПП
2300
Ширина основной ВПП
48
Покрытие основной ВПП
Твёрдое (бетон)
Освещение ВПП
Постоянное
Тип: 
Аэродром
Класс аэродрома: 
Международный
Принадлежность: 
ГА
Статус: 
Действующий
Сайт: 
http://lipetsk-airport.ru/
E-mail аэродрома: 
airport@lipetsk.ru
Страна: 
Россия
Регион: 
Липецкая область
Дополнительная информация: 
Оператор: областное государственное казенное предприятие "Липецкий аэропорт".
Погода: 

Авиационная погода в Липецке

Регион: 
Погода METAR: 
UUOL 241700Z 30006MPS 9999 SCT040 04/M01 Q1019 R15/090060 NOSIG
Время наблюдения
2021-10-24T17:00:00Z
Температура C
4.0
Точка росы
-1.0
Направление ветра
300
Скорость ветра (узлы)
12
Метео видимость
6.21
Явления погоды
Условия полета
VFR
Аэропорт подробнее: 

Найти трансфер

С помощью этой формы Вы можете найти трансфер из аэропорта Липецк в город, аэропорт или вокзал:

Карта места

Javascript is required to view this map.

Погода в аэропортах:

Авиационная погода в Ботсфьорде

Регион: 
Погода METAR: 
ENBS 241420Z 28005KT 9999 -SHSN FEW016 SCT023 BKN045 M01/M03 Q1012
Время наблюдения
2021-10-24T14:20:00Z
Температура C
-1.0
Точка росы
-3.0
Направление ветра
280
Скорость ветра (узлы)
5
Метео видимость
6.21
Явления погоды
-SHSN
Условия полета
VFR

Авиационная погода в Вардё

Регион: 
Погода METAR: 
ENSS 241650Z 34006KT 9999 VCSH SCT030 M01/M06 Q1013 RMK WIND 500FT 36014KT
Время наблюдения
2021-10-24T16:50:00Z
Температура C
-1.0
Точка росы
-6.0
Направление ветра
340
Скорость ветра (узлы)
6
Метео видимость
6.21
Явления погоды
VCSH
Условия полета
VFR

Авиационная погода в аэропорту Алыкель

Регион: 
Погода METAR: 
UOOO 241700Z 06003MPS 3100 -SN SCT012 M03/M03 Q0987 R01/491048 NOSIG RMK QFE726/0968
Время наблюдения
2021-10-24T17:00:00Z
Температура C
-3.0
Точка росы
-3.0
Направление ветра
60
Скорость ветра (узлы)
6
Метео видимость
1.93
Явления погоды
-SN
Условия полета
IFR
Аэропорт подробнее: 

Авиационная погода в Якутске

Регион: 
Погода METAR: 
UEEE 241700Z 22002MPS 9999 -SHSN SCT040CB 00/M01 Q1003 R23L/150156 NOSIG RMK QFE743
Время наблюдения
2021-10-24T17:00:00Z
Температура C
0.0
Точка росы
-1.0
Направление ветра
220
Скорость ветра (узлы)
4
Метео видимость
6.21
Явления погоды
-SHSN
Условия полета
VFR
Аэропорт подробнее: